Nautilus — OUYX2 — position and weather

sailwx.info

Track history (hours):
 
Tides and Currents Weather Stations Pressure Air Temp Water Temp Dewpoint Dewpoint Depression Visibility Wind Speed Wind Dir Waves Ship Positions

Nautilus

Last reported at 2016-Aug-26 02:13 UTC. Time now 2016-Aug-26 03:13 UTC.
Position N 56°10' E 011°29'.

Length 120 m; draft 7 m.

Type: Ship. MMSI: 219425000.

Date/timePositionNaut miles runAvg speedWind from/ knotsBaromVisibWave heightAir tempDewpointWater temp
2016-Aug-26 02:13N 56°10' E 011°29'810.5
2016-Aug-26 01:30N 56°10' E 011°15'1111.7
2016-Aug-26 00:33N 56°00' E 011°04'1312.6
2016-Aug-25 23:33N 55°50' E 010°50'10 9.8
2016-Aug-25 22:34N 55°42' E 010°58'7 0.4
2016-Aug-25 04:33N 55°46' E 010°49'10 9.9
2016-Aug-25 03:33N 55°55' E 010°56'1111.2
2016-Aug-25 02:34N 56°04' E 011°07'1110.9
2016-Aug-25 01:33N 56°10' E 011°23'1212.3
2016-Aug-25 00:33N 56°08' E 011°44'1212.3
2016-Aug-24 23:33N 56°12' E 012°06'1212.0
2016-Aug-24 22:34N 56°10' E 012°27'1413.7
2016-Aug-24 21:34N 55°59' E 012°42'1312.5
2016-Aug-24 20:34N 55°46' E 012°42'1313.2
2016-Aug-24 19:34N 55°33' E 012°42'1312.6
2016-Aug-24 18:34N 55°20' E 012°40'1211.6
2016-Aug-24 17:34N 55°16' E 012°59'1312.9
2016-Aug-24 16:34N 55°15' E 013°21'1312.8
2016-Aug-24 15:34N 55°14' E 013°44'1212.4
2016-Aug-24 14:34N 55°13' E 014°05'1111.3
2016-Aug-24 13:34N 55°18' E 014°23'1212.3
2016-Aug-24 12:34N 55°27' E 014°38'1312.6
2016-Aug-24 11:34N 55°34' E 014°56'1212.1
2016-Aug-24 10:34N 55°40' E 015°15'1412.1
2016-Aug-24 09:22N 55°47' E 015°37'1012.5
2016-Aug-24 08:33N 55°52' E 015°53'2812.9
2016-Aug-24 06:22N 56°07' E 016°36'15311.9
2016-Aug-23 17:28N 58°37' E 017°24'1112.2
2016-Aug-23 16:33N 58°37' E 017°03'1312.5
2016-Aug-23 15:33N 58°38' E 016°39'1111.3
2016-Aug-23 14:34N 58°38' E 016°17'1 1.2
2016-Aug-23 13:32N 58°37' E 016°15'0 0.0
2016-Aug-23 12:32N 58°37' E 016°15'0 0.0
2016-Aug-23 11:32N 58°37' E 016°15'0 0.0
2016-Aug-23 10:32N 58°37' E 016°15'0 0.0
2016-Aug-23 09:32N 58°37' E 016°15'0 0.0
2016-Aug-23 08:32N 58°37' E 016°15'0 0.0
2016-Aug-23 07:32N 58°37' E 016°15'0 0.0
2016-Aug-23 06:32N 58°37' E 016°15'0 0.0
2016-Aug-23 05:32N 58°37' E 016°15'0 0.0
2016-Aug-23 04:32N 58°37' E 016°15'0 0.0
2016-Aug-23 03:32N 58°37' E 016°15'0 0.0
2016-Aug-23 02:32N 58°37' E 016°15'0 0.1
2016-Aug-23 01:33N 58°37' E 016°15'8 8.4
2016-Aug-23 00:33N 58°39' E 016°31'1211.7
2016-Aug-22 23:33N 58°36' E 016°53'1211.8
2016-Aug-22 22:33N 58°37' E 017°16'12 9.0
2016-Aug-22 21:11N 58°30' E 017°35'16611.2
2016-Aug-22 06:24N 55°51' E 016°05'1012.0
2016-Aug-22 05:33N 55°46' E 015°49'1211.9
2016-Aug-22 04:33N 55°40' E 015°30'1212.3
2016-Aug-22 03:33N 55°34' E 015°11'1212.3
2016-Aug-22 02:33N 55°29' E 014°52'1212.0
2016-Aug-22 01:33N 55°22' E 014°35'1212.0
2016-Aug-22 00:33N 55°12' E 014°22'1211.6
2016-Aug-21 23:33N 55°11' E 014°02'1212.3
2016-Aug-21 22:33N 55°12' E 013°40'1212.1
2016-Aug-21 21:33N 55°12' E 013°19'1211.9
2016-Aug-21 20:33N 55°13' E 012°58'1111.4
2016-Aug-21 19:33N 55°17' E 012°40'1010.2
2016-Aug-21 18:33N 55°28' E 012°40'9 9.3
2016-Aug-21 17:33N 55°37' E 012°42'1010.2
2016-Aug-21 16:33N 55°47' E 012°42'1111.0
2016-Aug-21 15:33N 55°58' E 012°40'10 9.8
2016-Aug-21 14:33N 56°07' E 012°32'1010.2
2016-Aug-21 13:33N 56°16' E 012°23'1010.2
2016-Aug-21 12:33N 56°25' E 012°18'1111.1
2016-Aug-21 11:33N 56°36' E 012°13'1111.4
2016-Aug-21 10:33N 56°47' E 012°07'1110.9
2016-Aug-21 09:33N 56°58' E 012°02'1111.1
2016-Aug-21 08:33N 57°08' E 011°56'1010.1
2016-Aug-21 07:33N 57°17' E 011°48'1010.2
2016-Aug-21 06:33N 57°26' E 011°37'1110.7
2016-Aug-21 05:33N 57°35' E 011°26'1111.2
2016-Aug-21 04:33N 57°46' E 011°21'1111.3
2016-Aug-21 03:33N 57°57' E 011°18'1111.2
2016-Aug-21 02:33N 58°08' E 011°14'1110.7
2016-Aug-21 01:33N 58°18' E 011°19'5 0.3
2016-Aug-20 10:04N 58°21' E 011°26'2 3.8
2016-Aug-20 09:33N 58°20' E 011°24'6 5.5
2016-Aug-20 08:33N 58°16' E 011°16'9 8.9
2016-Aug-20 07:33N 58°07' E 011°14'1313.0
2016-Aug-20 06:33N 57°55' E 011°18'1212.5
2016-Aug-20 05:33N 57°42' E 011°22'1212.1
2016-Aug-20 04:33N 57°31' E 011°30'1312.7
2016-Aug-20 03:33N 57°21' E 011°44'1312.8
2016-Aug-20 02:33N 57°10' E 011°56'1312.7
2016-Aug-20 01:33N 56°58' E 012°03'1312.8
2016-Aug-20 00:33N 56°45' E 012°09'1212.2
2016-Aug-19 23:33N 56°34' E 012°16'1313.2
2016-Aug-19 22:33N 56°21' E 012°22'1414.4
2016-Aug-19 21:34N 56°08' E 012°32'1313.1
2016-Aug-19 20:33N 55°56' E 012°44'1312.6
2016-Aug-19 19:33N 55°44' E 012°41'1313.1
2016-Aug-19 18:33N 55°31' E 012°43'1212.5
2016-Aug-19 17:33N 55°18' E 012°41'1212.3
2016-Aug-19 16:33N 55°15' E 013°02'1212.4
2016-Aug-19 15:33N 55°15' E 013°24'1312.4
2016-Aug-19 14:33N 55°14' E 013°46'1212.2
2016-Aug-19 13:33N 55°14' E 014°07'1110.9
2016-Aug-19 12:33N 55°20' E 014°23'1212.0
2016-Aug-19 11:33N 55°28' E 014°38'1212.4
2016-Aug-19 10:33N 55°34' E 014°57'1212.3
2016-Aug-19 09:33N 55°40' E 015°16'4 0.1
2016-Aug-18 08:22N 55°37' E 015°19'910.9
2016-Aug-18 07:34N 55°33' E 015°06'1111.2
2016-Aug-18 06:33N 55°27' E 014°48'1110.7
2016-Aug-18 05:34N 55°21' E 014°34'1010.3
2016-Aug-18 04:33N 55°13' E 014°22'1110.7
2016-Aug-18 03:33N 55°10' E 014°04'1111.2
2016-Aug-18 02:33N 55°11' E 013°44'1311.0
2016-Aug-18 01:20N 55°12' E 013°21'910.8
2016-Aug-18 00:33N 55°12' E 013°06'1111.3
2016-Aug-17 23:33N 55°16' E 012°47'9 8.6
2016-Aug-17 22:34N 55°23' E 012°39'1110.6
2016-Aug-17 21:33N 55°33' E 012°42'9 8.9
2016-Aug-17 20:33N 55°42' E 012°41'1010.1
2016-Aug-17 19:34N 55°52' E 012°40'1010.2
2016-Aug-17 18:33N 56°02' E 012°39'1010.1
2016-Aug-17 17:34N 56°09' E 012°26'1111.1
2016-Aug-17 16:34N 56°12' E 012°07'1110.8
2016-Aug-17 15:34N 56°09' E 011°48'1111.1
2016-Aug-17 14:33N 56°10' E 011°28'1110.9
2016-Aug-17 13:33N 56°06' E 011°10'1512.0
2016-Aug-17 12:18N 55°54' E 010°56'12 0.7
2016-Aug-16 19:21N 55°42' E 010°56'8 9.8
2016-Aug-16 18:33N 55°48' E 010°48'10 9.8
2016-Aug-16 17:33N 55°56' E 010°59'9 9.4
2016-Aug-16 16:33N 56°05' E 011°07'29 5.9
2016-Aug-16 11:34N 56°12' E 011°58'4 3.1
2016-Aug-16 10:13N 56°10' E 011°52'812.3
2016-Aug-16 09:33N 56°12' E 012°06'1111.3
2016-Aug-16 08:34N 56°10' E 012°26'1312.8
2016-Aug-16 07:34N 56°00' E 012°41'3110.2
2016-Aug-16 04:33N 55°30' E 012°43'1111.4
2016-Aug-16 03:34N 55°18' E 012°41'1111.1
2016-Aug-16 02:34N 55°16' E 013°00'  
Track history (hours):
 
Tides and Currents Weather Stations Pressure Air Temp Water Temp Dewpoint Dewpoint Depression Visibility Wind Speed Wind Dir Waves Ship Positions

Nautilus

Last reported at 2016-Aug-26 02:13 UTC. Time now 2016-Aug-26 03:13 UTC.
Position N 56°10' E 011°29'.

Length 120 m; draft 7 m.

Type: Ship. MMSI: 219425000.

Date/timePositionNaut miles runAvg speedWind from/ knotsBaromVisibWave heightAir tempDewpointWater temp
2016-Aug-26 02:13N 56°10' E 011°29'810.5
2016-Aug-26 01:30N 56°10' E 011°15'1111.7
2016-Aug-26 00:33N 56°00' E 011°04'1312.6
2016-Aug-25 23:33N 55°50' E 010°50'10 9.8
2016-Aug-25 22:34N 55°42' E 010°58'7 0.4
2016-Aug-25 04:33N 55°46' E 010°49'10 9.9
2016-Aug-25 03:33N 55°55' E 010°56'1111.2
2016-Aug-25 02:34N 56°04' E 011°07'1110.9
2016-Aug-25 01:33N 56°10' E 011°23'1212.3
2016-Aug-25 00:33N 56°08' E 011°44'1212.3
2016-Aug-24 23:33N 56°12' E 012°06'1212.0
2016-Aug-24 22:34N 56°10' E 012°27'1413.7
2016-Aug-24 21:34N 55°59' E 012°42'1312.5
2016-Aug-24 20:34N 55°46' E 012°42'1313.2
2016-Aug-24 19:34N 55°33' E 012°42'1312.6
2016-Aug-24 18:34N 55°20' E 012°40'1211.6
2016-Aug-24 17:34N 55°16' E 012°59'1312.9
2016-Aug-24 16:34N 55°15' E 013°21'1312.8
2016-Aug-24 15:34N 55°14' E 013°44'1212.4
2016-Aug-24 14:34N 55°13' E 014°05'1111.3
2016-Aug-24 13:34N 55°18' E 014°23'1212.3
2016-Aug-24 12:34N 55°27' E 014°38'1312.6
2016-Aug-24 11:34N 55°34' E 014°56'1212.1
2016-Aug-24 10:34N 55°40' E 015°15'1412.1
2016-Aug-24 09:22N 55°47' E 015°37'1012.5
2016-Aug-24 08:33N 55°52' E 015°53'2812.9
2016-Aug-24 06:22N 56°07' E 016°36'15311.9
2016-Aug-23 17:28N 58°37' E 017°24'1112.2
2016-Aug-23 16:33N 58°37' E 017°03'1312.5
2016-Aug-23 15:33N 58°38' E 016°39'1111.3
2016-Aug-23 14:34N 58°38' E 016°17'1 1.2
2016-Aug-23 13:32N 58°37' E 016°15'0 0.0
2016-Aug-23 12:32N 58°37' E 016°15'0 0.0
2016-Aug-23 11:32N 58°37' E 016°15'0 0.0
2016-Aug-23 10:32N 58°37' E 016°15'0 0.0
2016-Aug-23 09:32N 58°37' E 016°15'0 0.0
2016-Aug-23 08:32N 58°37' E 016°15'0 0.0
2016-Aug-23 07:32N 58°37' E 016°15'0 0.0
2016-Aug-23 06:32N 58°37' E 016°15'0 0.0
2016-Aug-23 05:32N 58°37' E 016°15'0 0.0
2016-Aug-23 04:32N 58°37' E 016°15'0 0.0
2016-Aug-23 03:32N 58°37' E 016°15'0 0.0
2016-Aug-23 02:32N 58°37' E 016°15'0 0.1
2016-Aug-23 01:33N 58°37' E 016°15'8 8.4
2016-Aug-23 00:33N 58°39' E 016°31'1211.7
2016-Aug-22 23:33N 58°36' E 016°53'1211.8
2016-Aug-22 22:33N 58°37' E 017°16'12 9.0
2016-Aug-22 21:11N 58°30' E 017°35'16611.2
2016-Aug-22 06:24N 55°51' E 016°05'1012.0
2016-Aug-22 05:33N 55°46' E 015°49'1211.9
2016-Aug-22 04:33N 55°40' E 015°30'1212.3
2016-Aug-22 03:33N 55°34' E 015°11'1212.3
2016-Aug-22 02:33N 55°29' E 014°52'1212.0
2016-Aug-22 01:33N 55°22' E 014°35'1212.0
2016-Aug-22 00:33N 55°12' E 014°22'1211.6
2016-Aug-21 23:33N 55°11' E 014°02'1212.3
2016-Aug-21 22:33N 55°12' E 013°40'1212.1
2016-Aug-21 21:33N 55°12' E 013°19'1211.9
2016-Aug-21 20:33N 55°13' E 012°58'1111.4
2016-Aug-21 19:33N 55°17' E 012°40'1010.2
2016-Aug-21 18:33N 55°28' E 012°40'9 9.3
2016-Aug-21 17:33N 55°37' E 012°42'1010.2
2016-Aug-21 16:33N 55°47' E 012°42'1111.0
2016-Aug-21 15:33N 55°58' E 012°40'10 9.8
2016-Aug-21 14:33N 56°07' E 012°32'1010.2
2016-Aug-21 13:33N 56°16' E 012°23'1010.2
2016-Aug-21 12:33N 56°25' E 012°18'1111.1
2016-Aug-21 11:33N 56°36' E 012°13'1111.4
2016-Aug-21 10:33N 56°47' E 012°07'1110.9
2016-Aug-21 09:33N 56°58' E 012°02'1111.1
2016-Aug-21 08:33N 57°08' E 011°56'1010.1
2016-Aug-21 07:33N 57°17' E 011°48'1010.2
2016-Aug-21 06:33N 57°26' E 011°37'1110.7
2016-Aug-21 05:33N 57°35' E 011°26'1111.2
2016-Aug-21 04:33N 57°46' E 011°21'1111.3
2016-Aug-21 03:33N 57°57' E 011°18'1111.2
2016-Aug-21 02:33N 58°08' E 011°14'1110.7
2016-Aug-21 01:33N 58°18' E 011°19'5 0.3
2016-Aug-20 10:04N 58°21' E 011°26'2 3.8
2016-Aug-20 09:33N 58°20' E 011°24'6 5.5
2016-Aug-20 08:33N 58°16' E 011°16'9 8.9
2016-Aug-20 07:33N 58°07' E 011°14'1313.0
2016-Aug-20 06:33N 57°55' E 011°18'1212.5
2016-Aug-20 05:33N 57°42' E 011°22'1212.1
2016-Aug-20 04:33N 57°31' E 011°30'1312.7
2016-Aug-20 03:33N 57°21' E 011°44'1312.8
2016-Aug-20 02:33N 57°10' E 011°56'1312.7
2016-Aug-20 01:33N 56°58' E 012°03'1312.8
2016-Aug-20 00:33N 56°45' E 012°09'1212.2
2016-Aug-19 23:33N 56°34' E 012°16'1313.2
2016-Aug-19 22:33N 56°21' E 012°22'1414.4
2016-Aug-19 21:34N 56°08' E 012°32'1313.1
2016-Aug-19 20:33N 55°56' E 012°44'1312.6
2016-Aug-19 19:33N 55°44' E 012°41'1313.1
2016-Aug-19 18:33N 55°31' E 012°43'1212.5
2016-Aug-19 17:33N 55°18' E 012°41'1212.3
2016-Aug-19 16:33N 55°15' E 013°02'1212.4
2016-Aug-19 15:33N 55°15' E 013°24'1312.4
2016-Aug-19 14:33N 55°14' E 013°46'1212.2
2016-Aug-19 13:33N 55°14' E 014°07'1110.9
2016-Aug-19 12:33N 55°20' E 014°23'1212.0
2016-Aug-19 11:33N 55°28' E 014°38'1212.4
2016-Aug-19 10:33N 55°34' E 014°57'1212.3
2016-Aug-19 09:33N 55°40' E 015°16'4 0.1
2016-Aug-18 08:22N 55°37' E 015°19'910.9
2016-Aug-18 07:34N 55°33' E 015°06'1111.2
2016-Aug-18 06:33N 55°27' E 014°48'1110.7
2016-Aug-18 05:34N 55°21' E 014°34'1010.3
2016-Aug-18 04:33N 55°13' E 014°22'1110.7
2016-Aug-18 03:33N 55°10' E 014°04'1111.2
2016-Aug-18 02:33N 55°11' E 013°44'1311.0
2016-Aug-18 01:20N 55°12' E 013°21'910.8
2016-Aug-18 00:33N 55°12' E 013°06'1111.3
2016-Aug-17 23:33N 55°16' E 012°47'9 8.6
2016-Aug-17 22:34N 55°23' E 012°39'1110.6
2016-Aug-17 21:33N 55°33' E 012°42'9 8.9
2016-Aug-17 20:33N 55°42' E 012°41'1010.1
2016-Aug-17 19:34N 55°52' E 012°40'1010.2
2016-Aug-17 18:33N 56°02' E 012°39'1010.1
2016-Aug-17 17:34N 56°09' E 012°26'1111.1
2016-Aug-17 16:34N 56°12' E 012°07'1110.8
2016-Aug-17 15:34N 56°09' E 011°48'1111.1
2016-Aug-17 14:33N 56°10' E 011°28'1110.9
2016-Aug-17 13:33N 56°06' E 011°10'1512.0
2016-Aug-17 12:18N 55°54' E 010°56'12 0.7
2016-Aug-16 19:21N 55°42' E 010°56'8 9.8
2016-Aug-16 18:33N 55°48' E 010°48'10 9.8
2016-Aug-16 17:33N 55°56' E 010°59'9 9.4
2016-Aug-16 16:33N 56°05' E 011°07'29 5.9
2016-Aug-16 11:34N 56°12' E 011°58'4 3.1
2016-Aug-16 10:13N 56°10' E 011°52'812.3
2016-Aug-16 09:33N 56°12' E 012°06'1111.3
2016-Aug-16 08:34N 56°10' E 012°26'1312.8
2016-Aug-16 07:34N 56°00' E 012°41'3110.2
2016-Aug-16 04:33N 55°30' E 012°43'1111.4
2016-Aug-16 03:34N 55°18' E 012°41'1111.1
2016-Aug-16 02:34N 55°16' E 013°00'  

Dump ship's entire track history